sensor_id;sensor_type;location;lat;lon;timestamp;P1;durP1;ratioP1;P2;durP2;ratioP2
23370;SDS011;11858;51.056;3.712;2023-12-04T00:01:18;23.67;;;21.60;;
23370;SDS011;11858;51.056;3.712;2023-12-04T00:03:44;21.92;;;20.00;;
23370;SDS011;11858;51.056;3.712;2023-12-04T00:06:10;20.42;;;18.63;;
23370;SDS011;11858;51.056;3.712;2023-12-04T00:08:36;20.83;;;19.25;;
23370;SDS011;11858;51.056;3.712;2023-12-04T00:11:03;21.80;;;20.00;;
23370;SDS011;11858;51.056;3.712;2023-12-04T00:13:29;23.08;;;20.77;;
23370;SDS011;11858;51.056;3.712;2023-12-04T00:15:55;22.20;;;19.70;;
23370;SDS011;11858;51.056;3.712;2023-12-04T00:18:22;23.05;;;20.88;;
23370;SDS011;11858;51.056;3.712;2023-12-04T00:20:48;25.67;;;23.08;;
23370;SDS011;11858;51.056;3.712;2023-12-04T00:23:13;24.67;;;22.40;;
23370;SDS011;11858;51.056;3.712;2023-12-04T00:25:39;26.17;;;23.38;;
23370;SDS011;11858;51.056;3.712;2023-12-04T00:28:05;21.60;;;20.00;;
23370;SDS011;11858;51.056;3.712;2023-12-04T00:30:30;23.92;;;21.88;;
23370;SDS011;11858;51.056;3.712;2023-12-04T00:32:56;23.08;;;20.90;;
23370;SDS011;11858;51.056;3.712;2023-12-04T00:35:22;19.88;;;18.38;;
23370;SDS011;11858;51.056;3.712;2023-12-04T00:37:47;19.88;;;18.58;;
23370;SDS011;11858;51.056;3.712;2023-12-04T00:40:13;21.02;;;19.00;;
23370;SDS011;11858;51.056;3.712;2023-12-04T00:42:39;20.90;;;19.15;;
23370;SDS011;11858;51.056;3.712;2023-12-04T00:45:05;20.77;;;19.13;;
23370;SDS011;11858;51.056;3.712;2023-12-04T00:47:31;21.75;;;20.08;;
23370;SDS011;11858;51.056;3.712;2023-12-04T00:49:56;21.10;;;19.50;;
23370;SDS011;11858;51.056;3.712;2023-12-04T00:52:22;21.23;;;19.73;;
23370;SDS011;11858;51.056;3.712;2023-12-04T00:54:48;19.58;;;18.15;;
23370;SDS011;11858;51.056;3.712;2023-12-04T00:57:13;23.95;;;21.60;;
23370;SDS011;11858;51.056;3.712;2023-12-04T00:59:39;22.38;;;20.58;;
23370;SDS011;11858;51.056;3.712;2023-12-04T01:02:06;19.58;;;18.05;;
23370;SDS011;11858;51.056;3.712;2023-12-04T01:04:32;25.25;;;22.95;;
23370;SDS011;11858;51.056;3.712;2023-12-04T01:06:58;20.80;;;19.27;;
23370;SDS011;11858;51.056;3.712;2023-12-04T01:09:24;23.13;;;21.20;;
23370;SDS011;11858;51.056;3.712;2023-12-04T01:11:51;19.10;;;17.90;;
23370;SDS011;11858;51.056;3.712;2023-12-04T01:14:18;20.52;;;19.13;;
23370;SDS011;11858;51.056;3.712;2023-12-04T01:16:45;22.13;;;20.30;;
23370;SDS011;11858;51.056;3.712;2023-12-04T01:19:10;21.77;;;20.05;;
23370;SDS011;11858;51.056;3.712;2023-12-04T01:21:36;27.17;;;24.40;;
23370;SDS011;11858;51.056;3.712;2023-12-04T01:24:02;21.38;;;19.88;;
23370;SDS011;11858;51.056;3.712;2023-12-04T01:26:28;25.63;;;23.23;;
23370;SDS011;11858;51.056;3.712;2023-12-04T01:28:53;24.58;;;22.38;;
23370;SDS011;11858;51.056;3.712;2023-12-04T01:31:19;22.77;;;20.95;;
23370;SDS011;11858;51.056;3.712;2023-12-04T01:33:45;22.50;;;20.45;;
23370;SDS011;11858;51.056;3.712;2023-12-04T01:36:10;21.48;;;19.88;;
23370;SDS011;11858;51.056;3.712;2023-12-04T01:38:37;22.65;;;20.92;;
23370;SDS011;11858;51.056;3.712;2023-12-04T01:41:03;20.95;;;19.45;;
23370;SDS011;11858;51.056;3.712;2023-12-04T01:43:29;22.15;;;20.42;;
23370;SDS011;11858;51.056;3.712;2023-12-04T01:45:55;24.17;;;21.95;;
23370;SDS011;11858;51.056;3.712;2023-12-04T01:48:21;25.50;;;23.20;;
23370;SDS011;11858;51.056;3.712;2023-12-04T01:50:49;21.63;;;19.95;;
23370;SDS011;11858;51.056;3.712;2023-12-04T01:53:15;20.45;;;19.00;;
23370;SDS011;11858;51.056;3.712;2023-12-04T01:55:41;20.88;;;19.40;;
23370;SDS011;11858;51.056;3.712;2023-12-04T01:58:07;21.13;;;19.63;;
23370;SDS011;11858;51.056;3.712;2023-12-04T02:00:34;20.00;;;18.70;;
23370;SDS011;11858;51.056;3.712;2023-12-04T02:03:00;21.25;;;19.65;;
23370;SDS011;11858;51.056;3.712;2023-12-04T02:05:26;20.90;;;19.45;;
23370;SDS011;11858;51.056;3.712;2023-12-04T02:07:53;21.60;;;20.08;;
23370;SDS011;11858;51.056;3.712;2023-12-04T02:10:20;20.77;;;19.27;;
23370;SDS011;11858;51.056;3.712;2023-12-04T02:12:47;22.40;;;20.60;;
23370;SDS011;11858;51.056;3.712;2023-12-04T02:15:13;20.50;;;19.10;;
23370;SDS011;11858;51.056;3.712;2023-12-04T02:17:39;21.27;;;19.55;;
23370;SDS011;11858;51.056;3.712;2023-12-04T02:20:05;21.60;;;19.83;;
23370;SDS011;11858;51.056;3.712;2023-12-04T02:22:32;24.08;;;21.65;;
23370;SDS011;11858;51.056;3.712;2023-12-04T02:24:58;20.75;;;19.35;;
23370;SDS011;11858;51.056;3.712;2023-12-04T02:27:26;22.13;;;20.30;;
23370;SDS011;11858;51.056;3.712;2023-12-04T02:29:56;20.00;;;18.70;;
23370;SDS011;11858;51.056;3.712;2023-12-04T02:32:27;19.88;;;18.55;;
23370;SDS011;11858;51.056;3.712;2023-12-04T02:34:55;21.75;;;20.02;;
23370;SDS011;11858;51.056;3.712;2023-12-04T02:37:23;20.00;;;18.70;;
23370;SDS011;11858;51.056;3.712;2023-12-04T02:39:50;20.00;;;18.60;;
23370;SDS011;11858;51.056;3.712;2023-12-04T02:42:20;21.17;;;19.58;;
23370;SDS011;11858;51.056;3.712;2023-12-04T02:44:46;19.58;;;18.27;;
23370;SDS011;11858;51.056;3.712;2023-12-04T02:47:12;19.60;;;18.30;;
23370;SDS011;11858;51.056;3.712;2023-12-04T02:49:38;20.45;;;19.05;;
23370;SDS011;11858;51.056;3.712;2023-12-04T02:52:04;22.05;;;20.50;;
23370;SDS011;11858;51.056;3.712;2023-12-04T02:54:30;21.60;;;20.00;;
23370;SDS011;11858;51.056;3.712;2023-12-04T02:56:55;21.15;;;19.65;;
23370;SDS011;11858;51.056;3.712;2023-12-04T02:59:21;21.55;;;19.95;;
23370;SDS011;11858;51.056;3.712;2023-12-04T03:01:47;22.05;;;20.27;;
23370;SDS011;11858;51.056;3.712;2023-12-04T03:04:13;21.52;;;19.90;;
23370;SDS011;11858;51.056;3.712;2023-12-04T03:06:38;21.80;;;20.15;;
23370;SDS011;11858;51.056;3.712;2023-12-04T03:09:04;22.33;;;20.73;;
23370;SDS011;11858;51.056;3.712;2023-12-04T03:11:30;21.50;;;20.00;;
23370;SDS011;11858;51.056;3.712;2023-12-04T03:13:56;23.42;;;21.45;;
23370;SDS011;11858;51.056;3.712;2023-12-04T03:16:22;21.73;;;20.02;;
23370;SDS011;11858;51.056;3.712;2023-12-04T03:18:48;21.60;;;20.10;;
23370;SDS011;11858;51.056;3.712;2023-12-04T03:21:14;21.23;;;19.70;;
23370;SDS011;11858;51.056;3.712;2023-12-04T03:23:40;20.80;;;19.40;;
23370;SDS011;11858;51.056;3.712;2023-12-04T03:26:05;20.52;;;19.13;;
23370;SDS011;11858;51.056;3.712;2023-12-04T03:28:31;21.58;;;19.98;;
23370;SDS011;11858;51.056;3.712;2023-12-04T03:30:57;21.15;;;19.70;;
23370;SDS011;11858;51.056;3.712;2023-12-04T03:33:22;21.73;;;20.25;;
23370;SDS011;11858;51.056;3.712;2023-12-04T03:35:48;21.73;;;20.23;;
23370;SDS011;11858;51.056;3.712;2023-12-04T03:38:14;20.77;;;19.33;;
23370;SDS011;11858;51.056;3.712;2023-12-04T03:40:40;21.40;;;19.90;;
23370;SDS011;11858;51.056;3.712;2023-12-04T03:43:05;20.90;;;19.48;;
23370;SDS011;11858;51.056;3.712;2023-12-04T03:45:31;21.02;;;19.63;;
23370;SDS011;11858;51.056;3.712;2023-12-04T03:47:57;22.30;;;20.67;;
23370;SDS011;11858;51.056;3.712;2023-12-04T03:50:22;21.95;;;20.40;;
23370;SDS011;11858;51.056;3.712;2023-12-04T03:52:48;20.80;;;19.42;;
23370;SDS011;11858;51.056;3.712;2023-12-04T03:55:14;22.00;;;20.17;;
23370;SDS011;11858;51.056;3.712;2023-12-04T03:57:39;21.73;;;20.08;;
23370;SDS011;11858;51.056;3.712;2023-12-04T04:00:05;22.45;;;20.75;;
23370;SDS011;11858;51.056;3.712;2023-12-04T04:02:31;29.60;;;27.38;;
23370;SDS011;11858;51.056;3.712;2023-12-04T04:04:57;29.52;;;27.17;;
23370;SDS011;11858;51.056;3.712;2023-12-04T04:07:22;27.50;;;25.65;;
23370;SDS011;11858;51.056;3.712;2023-12-04T04:09:48;26.95;;;25.23;;
23370;SDS011;11858;51.056;3.712;2023-12-04T04:12:14;29.05;;;26.88;;
23370;SDS011;11858;51.056;3.712;2023-12-04T04:14:39;30.00;;;27.98;;
23370;SDS011;11858;51.056;3.712;2023-12-04T04:17:05;30.63;;;28.40;;
23370;SDS011;11858;51.056;3.712;2023-12-04T04:19:31;26.20;;;24.58;;
23370;SDS011;11858;51.056;3.712;2023-12-04T04:21:57;26.55;;;24.85;;
23370;SDS011;11858;51.056;3.712;2023-12-04T04:24:23;31.27;;;28.73;;
23370;SDS011;11858;51.056;3.712;2023-12-04T04:26:48;27.63;;;25.73;;
23370;SDS011;11858;51.056;3.712;2023-12-04T04:29:14;28.23;;;26.33;;
23370;SDS011;11858;51.056;3.712;2023-12-04T04:31:40;28.65;;;26.70;;
23370;SDS011;11858;51.056;3.712;2023-12-04T04:34:05;30.70;;;28.30;;
23370;SDS011;11858;51.056;3.712;2023-12-04T04:36:31;26.42;;;24.73;;
23370;SDS011;11858;51.056;3.712;2023-12-04T04:38:57;27.90;;;25.80;;
23370;SDS011;11858;51.056;3.712;2023-12-04T04:41:22;27.17;;;25.35;;
23370;SDS011;11858;51.056;3.712;2023-12-04T04:43:48;26.15;;;24.50;;
23370;SDS011;11858;51.056;3.712;2023-12-04T04:46:14;28.20;;;25.95;;
23370;SDS011;11858;51.056;3.712;2023-12-04T04:48:40;26.35;;;24.65;;
23370;SDS011;11858;51.056;3.712;2023-12-04T04:51:06;28.70;;;26.45;;
23370;SDS011;11858;51.056;3.712;2023-12-04T04:53:32;26.40;;;24.70;;
23370;SDS011;11858;51.056;3.712;2023-12-04T04:55:57;31.65;;;29.13;;
23370;SDS011;11858;51.056;3.712;2023-12-04T04:58:23;27.33;;;25.42;;
23370;SDS011;11858;51.056;3.712;2023-12-04T05:00:49;30.38;;;28.05;;
23370;SDS011;11858;51.056;3.712;2023-12-04T05:03:14;27.48;;;25.67;;
23370;SDS011;11858;51.056;3.712;2023-12-04T05:05:40;28.35;;;26.27;;
23370;SDS011;11858;51.056;3.712;2023-12-04T05:08:06;26.75;;;25.05;;
23370;SDS011;11858;51.056;3.712;2023-12-04T05:10:32;26.17;;;24.13;;
23370;SDS011;11858;51.056;3.712;2023-12-04T05:12:57;26.65;;;25.05;;
23370;SDS011;11858;51.056;3.712;2023-12-04T05:15:23;25.75;;;24.05;;
23370;SDS011;11858;51.056;3.712;2023-12-04T05:17:50;26.20;;;24.55;;
23370;SDS011;11858;51.056;3.712;2023-12-04T05:20:16;26.30;;;24.40;;
23370;SDS011;11858;51.056;3.712;2023-12-04T05:22:42;25.35;;;23.75;;
23370;SDS011;11858;51.056;3.712;2023-12-04T05:25:08;26.58;;;24.80;;
23370;SDS011;11858;51.056;3.712;2023-12-04T05:27:33;25.15;;;23.45;;
23370;SDS011;11858;51.056;3.712;2023-12-04T05:29:59;26.60;;;24.90;;
23370;SDS011;11858;51.056;3.712;2023-12-04T05:32:25;26.75;;;25.05;;
23370;SDS011;11858;51.056;3.712;2023-12-04T05:34:50;26.33;;;24.60;;
23370;SDS011;11858;51.056;3.712;2023-12-04T05:37:16;27.38;;;25.67;;
23370;SDS011;11858;51.056;3.712;2023-12-04T05:39:42;27.35;;;25.10;;
23370;SDS011;11858;51.056;3.712;2023-12-04T05:42:07;27.60;;;25.90;;
23370;SDS011;11858;51.056;3.712;2023-12-04T05:44:33;26.50;;;24.77;;
23370;SDS011;11858;51.056;3.712;2023-12-04T05:47:00;28.02;;;26.13;;
23370;SDS011;11858;51.056;3.712;2023-12-04T05:49:25;30.00;;;27.58;;
23370;SDS011;11858;51.056;3.712;2023-12-04T05:51:51;28.42;;;26.52;;
23370;SDS011;11858;51.056;3.712;2023-12-04T05:54:17;28.38;;;26.48;;
23370;SDS011;11858;51.056;3.712;2023-12-04T05:56:43;31.38;;;28.90;;
23370;SDS011;11858;51.056;3.712;2023-12-04T05:59:08;28.80;;;26.77;;
23370;SDS011;11858;51.056;3.712;2023-12-04T06:01:34;26.27;;;24.67;;
23370;SDS011;11858;51.056;3.712;2023-12-04T06:04:00;29.25;;;27.05;;
23370;SDS011;11858;51.056;3.712;2023-12-04T06:06:26;25.17;;;23.58;;
23370;SDS011;11858;51.056;3.712;2023-12-04T06:08:52;25.75;;;24.15;;
23370;SDS011;11858;51.056;3.712;2023-12-04T06:11:18;25.08;;;23.58;;
23370;SDS011;11858;51.056;3.712;2023-12-04T06:13:43;25.90;;;24.30;;
23370;SDS011;11858;51.056;3.712;2023-12-04T06:16:09;27.02;;;25.33;;
23370;SDS011;11858;51.056;3.712;2023-12-04T06:18:35;24.60;;;23.00;;
23370;SDS011;11858;51.056;3.712;2023-12-04T06:21:01;26.77;;;24.95;;
23370;SDS011;11858;51.056;3.712;2023-12-04T06:23:26;27.20;;;25.50;;
23370;SDS011;11858;51.056;3.712;2023-12-04T06:25:52;24.85;;;23.33;;
23370;SDS011;11858;51.056;3.712;2023-12-04T06:28:18;26.80;;;24.90;;
23370;SDS011;11858;51.056;3.712;2023-12-04T06:30:44;20.80;;;19.50;;
23370;SDS011;11858;51.056;3.712;2023-12-04T06:33:10;21.65;;;20.17;;
23370;SDS011;11858;51.056;3.712;2023-12-04T06:35:38;22.08;;;20.23;;
23370;SDS011;11858;51.056;3.712;2023-12-04T06:38:07;22.52;;;20.83;;
23370;SDS011;11858;51.056;3.712;2023-12-04T06:40:33;22.50;;;20.88;;
23370;SDS011;11858;51.056;3.712;2023-12-04T06:43:00;20.00;;;18.70;;
23370;SDS011;11858;51.056;3.712;2023-12-04T06:45:26;22.67;;;20.88;;
23370;SDS011;11858;51.056;3.712;2023-12-04T06:47:52;21.13;;;19.63;;
23370;SDS011;11858;51.056;3.712;2023-12-04T06:50:19;21.83;;;20.40;;
23370;SDS011;11858;51.056;3.712;2023-12-04T06:52:45;22.42;;;20.60;;
23370;SDS011;11858;51.056;3.712;2023-12-04T06:55:12;20.15;;;18.75;;
23370;SDS011;11858;51.056;3.712;2023-12-04T06:57:38;20.60;;;19.30;;
23370;SDS011;11858;51.056;3.712;2023-12-04T07:00:04;21.00;;;19.70;;
23370;SDS011;11858;51.056;3.712;2023-12-04T07:02:32;21.05;;;19.33;;
23370;SDS011;11858;51.056;3.712;2023-12-04T07:04:57;24.20;;;22.30;;
23370;SDS011;11858;51.056;3.712;2023-12-04T07:07:23;22.30;;;20.52;;
23370;SDS011;11858;51.056;3.712;2023-12-04T07:09:49;21.73;;;20.00;;
23370;SDS011;11858;51.056;3.712;2023-12-04T07:12:14;23.05;;;21.33;;
23370;SDS011;11858;51.056;3.712;2023-12-04T07:14:40;23.15;;;21.25;;
23370;SDS011;11858;51.056;3.712;2023-12-04T07:17:06;21.55;;;20.00;;
23370;SDS011;11858;51.056;3.712;2023-12-04T07:19:32;20.30;;;19.00;;
23370;SDS011;11858;51.056;3.712;2023-12-04T07:21:58;20.58;;;19.17;;
23370;SDS011;11858;51.056;3.712;2023-12-04T07:24:24;23.17;;;21.45;;
23370;SDS011;11858;51.056;3.712;2023-12-04T07:26:51;20.92;;;19.52;;
23370;SDS011;11858;51.056;3.712;2023-12-04T07:29:17;20.88;;;19.40;;
23370;SDS011;11858;51.056;3.712;2023-12-04T07:31:43;23.55;;;21.65;;
23370;SDS011;11858;51.056;3.712;2023-12-04T07:34:08;21.90;;;20.38;;
23370;SDS011;11858;51.056;3.712;2023-12-04T07:36:34;20.90;;;19.50;;
23370;SDS011;11858;51.056;3.712;2023-12-04T07:39:00;21.65;;;20.15;;
23370;SDS011;11858;51.056;3.712;2023-12-04T07:41:26;21.73;;;20.23;;
23370;SDS011;11858;51.056;3.712;2023-12-04T07:43:51;21.77;;;19.95;;
23370;SDS011;11858;51.056;3.712;2023-12-04T07:46:17;25.02;;;22.65;;
23370;SDS011;11858;51.056;3.712;2023-12-04T07:48:43;21.55;;;20.05;;
23370;SDS011;11858;51.056;3.712;2023-12-04T07:51:11;21.98;;;20.35;;
23370;SDS011;11858;51.056;3.712;2023-12-04T07:53:37;20.73;;;19.35;;
23370;SDS011;11858;51.056;3.712;2023-12-04T07:56:03;19.05;;;17.85;;
23370;SDS011;11858;51.056;3.712;2023-12-04T07:58:30;22.95;;;21.08;;
23370;SDS011;11858;51.056;3.712;2023-12-04T08:00:56;21.00;;;19.48;;
23370;SDS011;11858;51.056;3.712;2023-12-04T08:03:22;20.85;;;19.42;;
23370;SDS011;11858;51.056;3.712;2023-12-04T08:05:49;21.85;;;20.05;;
23370;SDS011;11858;51.056;3.712;2023-12-04T08:08:15;19.30;;;18.10;;
23370;SDS011;11858;51.056;3.712;2023-12-04T08:10:41;18.83;;;17.63;;
23370;SDS011;11858;51.056;3.712;2023-12-04T08:13:07;20.20;;;18.75;;
23370;SDS011;11858;51.056;3.712;2023-12-04T08:15:33;20.92;;;19.33;;
23370;SDS011;11858;51.056;3.712;2023-12-04T08:17:58;21.73;;;19.90;;
23370;SDS011;11858;51.056;3.712;2023-12-04T08:20:25;19.75;;;18.45;;
23370;SDS011;11858;51.056;3.712;2023-12-04T08:22:51;19.63;;;18.38;;
23370;SDS011;11858;51.056;3.712;2023-12-04T08:25:17;19.92;;;18.63;;
23370;SDS011;11858;51.056;3.712;2023-12-04T08:27:42;19.52;;;18.13;;
23370;SDS011;11858;51.056;3.712;2023-12-04T08:30:08;21.48;;;19.92;;
23370;SDS011;11858;51.056;3.712;2023-12-04T08:32:34;20.98;;;19.33;;
23370;SDS011;11858;51.056;3.712;2023-12-04T08:35:00;21.00;;;19.50;;
23370;SDS011;11858;51.056;3.712;2023-12-04T08:37:25;21.08;;;19.48;;
23370;SDS011;11858;51.056;3.712;2023-12-04T08:39:51;19.48;;;18.25;;
23370;SDS011;11858;51.056;3.712;2023-12-04T08:42:18;20.70;;;19.15;;
23370;SDS011;11858;51.056;3.712;2023-12-04T08:44:44;20.45;;;18.95;;
23370;SDS011;11858;51.056;3.712;2023-12-04T08:47:12;20.13;;;18.80;;
23370;SDS011;11858;51.056;3.712;2023-12-04T08:49:39;18.90;;;17.67;;
23370;SDS011;11858;51.056;3.712;2023-12-04T08:52:06;17.67;;;16.58;;
23370;SDS011;11858;51.056;3.712;2023-12-04T08:54:32;20.85;;;19.23;;
23370;SDS011;11858;51.056;3.712;2023-12-04T08:56:58;19.80;;;18.38;;
23370;SDS011;11858;51.056;3.712;2023-12-04T08:59:24;19.70;;;18.33;;
23370;SDS011;11858;51.056;3.712;2023-12-04T09:01:49;19.65;;;18.27;;
23370;SDS011;11858;51.056;3.712;2023-12-04T09:04:15;17.88;;;16.77;;
23370;SDS011;11858;51.056;3.712;2023-12-04T09:06:41;19.85;;;18.33;;
23370;SDS011;11858;51.056;3.712;2023-12-04T09:09:06;20.05;;;18.52;;
23370;SDS011;11858;51.056;3.712;2023-12-04T09:11:32;19.15;;;17.85;;
23370;SDS011;11858;51.056;3.712;2023-12-04T09:13:58;19.45;;;18.05;;
23370;SDS011;11858;51.056;3.712;2023-12-04T09:16:24;19.52;;;18.02;;
23370;SDS011;11858;51.056;3.712;2023-12-04T09:18:50;18.90;;;17.60;;
23370;SDS011;11858;51.056;3.712;2023-12-04T09:21:15;20.88;;;18.73;;
23370;SDS011;11858;51.056;3.712;2023-12-04T09:23:41;18.45;;;17.23;;
23370;SDS011;11858;51.056;3.712;2023-12-04T09:26:07;18.23;;;16.92;;
23370;SDS011;11858;51.056;3.712;2023-12-04T09:28:33;18.60;;;17.20;;
23370;SDS011;11858;51.056;3.712;2023-12-04T09:31:01;17.75;;;16.45;;
23370;SDS011;11858;51.056;3.712;2023-12-04T09:33:27;16.23;;;15.23;;
23370;SDS011;11858;51.056;3.712;2023-12-04T09:35:53;39.78;;;18.85;;
23370;SDS011;11858;51.056;3.712;2023-12-04T09:38:19;15.00;;;14.10;;
23370;SDS011;11858;51.056;3.712;2023-12-04T09:40:44;15.45;;;14.43;;
23370;SDS011;11858;51.056;3.712;2023-12-04T09:43:10;15.25;;;14.05;;
23370;SDS011;11858;51.056;3.712;2023-12-04T09:45:36;14.60;;;13.65;;
23370;SDS011;11858;51.056;3.712;2023-12-04T09:48:04;14.43;;;13.40;;
23370;SDS011;11858;51.056;3.712;2023-12-04T09:50:31;13.57;;;12.77;;
23370;SDS011;11858;51.056;3.712;2023-12-04T09:52:56;13.73;;;12.75;;
23370;SDS011;11858;51.056;3.712;2023-12-04T09:55:26;15.07;;;13.15;;
23370;SDS011;11858;51.056;3.712;2023-12-04T09:57:52;11.27;;;10.68;;
23370;SDS011;11858;51.056;3.712;2023-12-04T10:00:19;12.13;;;11.20;;
23370;SDS011;11858;51.056;3.712;2023-12-04T10:02:46;11.70;;;10.88;;
23370;SDS011;11858;51.056;3.712;2023-12-04T10:05:12;11.65;;;10.75;;
23370;SDS011;11858;51.056;3.712;2023-12-04T10:07:38;10.25;;;9.60;;
23370;SDS011;11858;51.056;3.712;2023-12-04T10:10:04;9.27;;;8.57;;
23370;SDS011;11858;51.056;3.712;2023-12-04T10:12:31;9.90;;;9.10;;
23370;SDS011;11858;51.056;3.712;2023-12-04T10:15:05;8.85;;;8.25;;
23370;SDS011;11858;51.056;3.712;2023-12-04T10:17:34;8.82;;;8.23;;
23370;SDS011;11858;51.056;3.712;2023-12-04T10:20:04;7.35;;;6.95;;
23370;SDS011;11858;51.056;3.712;2023-12-04T10:22:37;7.13;;;6.57;;
23370;SDS011;11858;51.056;3.712;2023-12-04T10:25:16;5.80;;;5.50;;
23370;SDS011;11858;51.056;3.712;2023-12-04T10:27:45;7.45;;;6.75;;
23370;SDS011;11858;51.056;3.712;2023-12-04T10:30:29;7.57;;;6.68;;
23370;SDS011;11858;51.056;3.712;2023-12-04T10:32:56;10.32;;;5.85;;
23370;SDS011;11858;51.056;3.712;2023-12-04T10:35:26;4.00;;;3.80;;
23370;SDS011;11858;51.056;3.712;2023-12-04T10:37:59;5.10;;;4.68;;
23370;SDS011;11858;51.056;3.712;2023-12-04T10:42:51;4.63;;;4.32;;
23370;SDS011;11858;51.056;3.712;2023-12-04T10:45:35;4.22;;;3.92;;
23370;SDS011;11858;51.056;3.712;2023-12-04T10:48:02;3.83;;;3.58;;
23370;SDS011;11858;51.056;3.712;2023-12-04T10:50:33;7.18;;;4.85;;
23370;SDS011;11858;51.056;3.712;2023-12-04T10:53:02;9.45;;;7.07;;
23370;SDS011;11858;51.056;3.712;2023-12-04T10:55:29;6.95;;;5.97;;
23370;SDS011;11858;51.056;3.712;2023-12-04T10:57:55;5.30;;;4.80;;
23370;SDS011;11858;51.056;3.712;2023-12-04T11:00:22;3.70;;;3.40;;
23370;SDS011;11858;51.056;3.712;2023-12-04T11:02:49;5.45;;;4.97;;
23370;SDS011;11858;51.056;3.712;2023-12-04T11:05:16;4.93;;;4.25;;
23370;SDS011;11858;51.056;3.712;2023-12-04T11:07:50;3.97;;;3.78;;
23370;SDS011;11858;51.056;3.712;2023-12-04T11:10:19;4.32;;;4.03;;
23370;SDS011;11858;51.056;3.712;2023-12-04T11:12:50;4.32;;;3.92;;
23370;SDS011;11858;51.056;3.712;2023-12-04T11:15:21;4.43;;;4.13;;
23370;SDS011;11858;51.056;3.712;2023-12-04T11:17:51;3.88;;;3.58;;
23370;SDS011;11858;51.056;3.712;2023-12-04T11:20:24;4.80;;;3.95;;
23370;SDS011;11858;51.056;3.712;2023-12-04T11:22:52;4.90;;;4.60;;
23370;SDS011;11858;51.056;3.712;2023-12-04T11:25:20;4.50;;;4.20;;
23370;SDS011;11858;51.056;3.712;2023-12-04T11:27:50;4.45;;;4.15;;
23370;SDS011;11858;51.056;3.712;2023-12-04T11:30:17;8.30;;;6.22;;
23370;SDS011;11858;51.056;3.712;2023-12-04T11:32:43;5.63;;;5.10;;
23370;SDS011;11858;51.056;3.712;2023-12-04T11:35:16;4.43;;;4.13;;
23370;SDS011;11858;51.056;3.712;2023-12-04T11:37:46;5.93;;;4.38;;
23370;SDS011;11858;51.056;3.712;2023-12-04T11:40:13;5.80;;;5.25;;
23370;SDS011;11858;51.056;3.712;2023-12-04T11:42:41;5.30;;;4.80;;
23370;SDS011;11858;51.056;3.712;2023-12-04T11:45:07;5.25;;;4.65;;
23370;SDS011;11858;51.056;3.712;2023-12-04T11:47:49;4.00;;;3.80;;
23370;SDS011;11858;51.056;3.712;2023-12-04T11:50:16;3.78;;;3.58;;
23370;SDS011;11858;51.056;3.712;2023-12-04T11:52:43;4.40;;;4.10;;
23370;SDS011;11858;51.056;3.712;2023-12-04T11:55:10;4.00;;;3.80;;
23370;SDS011;11858;51.056;3.712;2023-12-04T11:57:36;4.05;;;3.85;;
23370;SDS011;11858;51.056;3.712;2023-12-04T12:00:10;4.23;;;4.03;;
23370;SDS011;11858;51.056;3.712;2023-12-04T12:02:40;7.43;;;4.20;;
23370;SDS011;11858;51.056;3.712;2023-12-04T12:05:06;4.15;;;3.88;;
23370;SDS011;11858;51.056;3.712;2023-12-04T12:07:33;4.53;;;4.13;;
23370;SDS011;11858;51.056;3.712;2023-12-04T12:09:59;4.65;;;4.18;;
23370;SDS011;11858;51.056;3.712;2023-12-04T12:12:25;3.53;;;3.33;;
23370;SDS011;11858;51.056;3.712;2023-12-04T12:14:52;4.18;;;3.88;;
23370;SDS011;11858;51.056;3.712;2023-12-04T12:17:18;2.80;;;2.70;;
23370;SDS011;11858;51.056;3.712;2023-12-04T12:19:44;4.45;;;4.15;;
23370;SDS011;11858;51.056;3.712;2023-12-04T12:22:11;3.55;;;3.30;;
23370;SDS011;11858;51.056;3.712;2023-12-04T12:24:37;3.95;;;3.75;;
23370;SDS011;11858;51.056;3.712;2023-12-04T12:27:02;3.50;;;3.30;;
23370;SDS011;11858;51.056;3.712;2023-12-04T12:29:29;4.75;;;4.40;;
23370;SDS011;11858;51.056;3.712;2023-12-04T12:31:55;4.72;;;4.32;;
23370;SDS011;11858;51.056;3.712;2023-12-04T12:34:20;5.55;;;5.05;;
23370;SDS011;11858;51.056;3.712;2023-12-04T12:36:46;5.15;;;4.82;;
23370;SDS011;11858;51.056;3.712;2023-12-04T12:39:12;4.53;;;4.32;;
23370;SDS011;11858;51.056;3.712;2023-12-04T12:41:40;5.13;;;4.82;;
23370;SDS011;11858;51.056;3.712;2023-12-04T12:44:13;5.68;;;5.32;;
23370;SDS011;11858;51.056;3.712;2023-12-04T12:46:40;7.93;;;7.15;;
23370;SDS011;11858;51.056;3.712;2023-12-04T12:49:06;6.43;;;6.03;;
23370;SDS011;11858;51.056;3.712;2023-12-04T12:51:31;5.40;;;5.10;;
23370;SDS011;11858;51.056;3.712;2023-12-04T12:53:57;6.10;;;5.65;;
23370;SDS011;11858;51.056;3.712;2023-12-04T12:56:24;9.20;;;8.40;;
23370;SDS011;11858;51.056;3.712;2023-12-04T12:58:52;5.90;;;5.60;;
23370;SDS011;11858;51.056;3.712;2023-12-04T13:01:18;5.80;;;5.50;;
23370;SDS011;11858;51.056;3.712;2023-12-04T13:03:47;6.22;;;5.82;;
23370;SDS011;11858;51.056;3.712;2023-12-04T13:06:13;5.72;;;5.43;;
23370;SDS011;11858;51.056;3.712;2023-12-04T13:08:38;5.43;;;5.13;;
23370;SDS011;11858;51.056;3.712;2023-12-04T13:11:05;6.20;;;5.60;;
23370;SDS011;11858;51.056;3.712;2023-12-04T13:13:30;7.32;;;6.63;;
23370;SDS011;11858;51.056;3.712;2023-12-04T13:15:57;5.72;;;5.38;;
23370;SDS011;11858;51.056;3.712;2023-12-04T13:18:23;6.60;;;6.20;;
23370;SDS011;11858;51.056;3.712;2023-12-04T13:20:52;7.40;;;6.70;;
23370;SDS011;11858;51.056;3.712;2023-12-04T13:23:17;6.13;;;5.63;;
23370;SDS011;11858;51.056;3.712;2023-12-04T13:25:43;5.68;;;5.35;;
23370;SDS011;11858;51.056;3.712;2023-12-04T13:28:09;4.80;;;4.60;;
23370;SDS011;11858;51.056;3.712;2023-12-04T13:30:35;4.80;;;4.60;;
23370;SDS011;11858;51.056;3.712;2023-12-04T13:33:01;7.97;;;7.18;;
23370;SDS011;11858;51.056;3.712;2023-12-04T13:35:28;5.53;;;5.22;;
23370;SDS011;11858;51.056;3.712;2023-12-04T13:37:53;5.70;;;5.40;;
23370;SDS011;11858;51.056;3.712;2023-12-04T13:40:21;5.85;;;5.55;;
23370;SDS011;11858;51.056;3.712;2023-12-04T13:42:51;5.43;;;5.13;;
23370;SDS011;11858;51.056;3.712;2023-12-04T13:45:36;6.90;;;6.35;;
23370;SDS011;11858;51.056;3.712;2023-12-04T13:48:02;5.85;;;5.55;;
23370;SDS011;11858;51.056;3.712;2023-12-04T13:50:28;5.25;;;4.95;;
23370;SDS011;11858;51.056;3.712;2023-12-04T13:52:54;5.20;;;4.90;;
23370;SDS011;11858;51.056;3.712;2023-12-04T13:55:20;14.82;;;5.13;;
23370;SDS011;11858;51.056;3.712;2023-12-04T13:57:58;5.50;;;5.10;;
23370;SDS011;11858;51.056;3.712;2023-12-04T14:00:24;4.85;;;4.55;;
23370;SDS011;11858;51.056;3.712;2023-12-04T14:02:50;7.15;;;5.88;;
23370;SDS011;11858;51.056;3.712;2023-12-04T14:05:25;5.45;;;5.05;;
23370;SDS011;11858;51.056;3.712;2023-12-04T14:07:51;3.70;;;3.50;;
23370;SDS011;11858;51.056;3.712;2023-12-04T14:10:16;7.20;;;6.47;;
23370;SDS011;11858;51.056;3.712;2023-12-04T14:12:42;4.90;;;4.50;;
23370;SDS011;11858;51.056;3.712;2023-12-04T14:15:08;3.88;;;3.67;;
23370;SDS011;11858;51.056;3.712;2023-12-04T14:17:34;3.60;;;3.40;;
23370;SDS011;11858;51.056;3.712;2023-12-04T14:20:00;5.10;;;4.70;;
23370;SDS011;11858;51.056;3.712;2023-12-04T14:22:28;3.10;;;3.00;;
23370;SDS011;11858;51.056;3.712;2023-12-04T14:24:54;6.25;;;4.97;;
23370;SDS011;11858;51.056;3.712;2023-12-04T14:27:19;2.35;;;2.25;;